<?xml version="1.0" encoding="UTF-8" standalone="no" ?>
<gpx xmlns="http://www.topografix.com/GPX/1/1" xmlns:xsi="http://www.w3.org/2001/XMLSchema-instance" xsi:schemaLocation="http://www.topografix.com/GPX/1/1 http://www.topografix.com/GPX/1/1/gpx.xsd" version="1.1" creator="VisuGPX - https://www.visugpx.com">
  <metadata>
    <name>Limony patachons du 10/10/2022</name>
  </metadata>
  <trk>
    <name><![CDATA[05-OCT-22 04:49:38 PM]]></name>
    <extensions>
      <line xmlns="http://www.topografix.com/GPX/gpx_style/0/2">
        <color>0000FF</color>
        <width>4</width>
      </line>
    </extensions>
    <trkseg>
      <trkpt lat="45.35157" lon="4.75906">
        <ele>143.37</ele>
        <time>2022-10-05T12:31:07Z</time>
      </trkpt>
      <trkpt lat="45.35159" lon="4.75906">
        <ele>135.68</ele>
        <time>2022-10-05T12:31:40Z</time>
      </trkpt>
      <trkpt lat="45.3516" lon="4.75905">
        <ele>135.2</ele>
        <time>2022-10-05T12:32:07Z</time>
      </trkpt>
      <trkpt lat="45.35161" lon="4.75906">
        <ele>135.68</ele>
        <time>2022-10-05T12:32:30Z</time>
      </trkpt>
      <trkpt lat="45.35159" lon="4.75903">
        <ele>136.16</ele>
        <time>2022-10-05T12:32:54Z</time>
      </trkpt>
      <trkpt lat="45.35166" lon="4.75901">
        <ele>135.68</ele>
        <time>2022-10-05T12:33:33Z</time>
      </trkpt>
      <trkpt lat="45.35163" lon="4.75901">
        <ele>135.68</ele>
        <time>2022-10-05T12:34:04Z</time>
      </trkpt>
      <trkpt lat="45.35162" lon="4.75905">
        <ele>135.68</ele>
        <time>2022-10-05T12:34:35Z</time>
      </trkpt>
      <trkpt lat="45.35148" lon="4.75913">
        <ele>135.2</ele>
        <time>2022-10-05T12:34:52Z</time>
      </trkpt>
      <trkpt lat="45.35143" lon="4.7592">
        <ele>136.16</ele>
        <time>2022-10-05T12:35:30Z</time>
      </trkpt>
      <trkpt lat="45.35148" lon="4.75916">
        <ele>135.68</ele>
        <time>2022-10-05T12:35:59Z</time>
      </trkpt>
      <trkpt lat="45.35147" lon="4.75915">
        <ele>136.16</ele>
        <time>2022-10-05T12:36:20Z</time>
      </trkpt>
      <trkpt lat="45.35144" lon="4.75918">
        <ele>135.68</ele>
        <time>2022-10-05T12:36:27Z</time>
      </trkpt>
      <trkpt lat="45.35136" lon="4.75926">
        <ele>136.64</ele>
        <time>2022-10-05T12:36:36Z</time>
      </trkpt>
      <trkpt lat="45.35135" lon="4.75927">
        <ele>137.13</ele>
        <time>2022-10-05T12:36:37Z</time>
      </trkpt>
      <trkpt lat="45.35116" lon="4.75946">
        <ele>135.68</ele>
        <time>2022-10-05T12:36:54Z</time>
      </trkpt>
      <trkpt lat="45.35097" lon="4.75966">
        <ele>136.16</ele>
        <time>2022-10-05T12:37:09Z</time>
      </trkpt>
      <trkpt lat="45.35074" lon="4.75951">
        <ele>135.68</ele>
        <time>2022-10-05T12:37:29Z</time>
      </trkpt>
      <trkpt lat="45.35046" lon="4.75933">
        <ele>135.2</ele>
        <time>2022-10-05T12:37:51Z</time>
      </trkpt>
      <trkpt lat="45.35015" lon="4.75924">
        <ele>136.16</ele>
        <time>2022-10-05T12:38:15Z</time>
      </trkpt>
      <trkpt lat="45.34982" lon="4.75921">
        <ele>135.68</ele>
        <time>2022-10-05T12:38:37Z</time>
      </trkpt>
      <trkpt lat="45.34953" lon="4.75909">
        <ele>136.16</ele>
        <time>2022-10-05T12:39:00Z</time>
      </trkpt>
      <trkpt lat="45.34919" lon="4.75912">
        <ele>136.16</ele>
        <time>2022-10-05T12:39:27Z</time>
      </trkpt>
      <trkpt lat="45.34903" lon="4.75915">
        <ele>136.64</ele>
        <time>2022-10-05T12:39:39Z</time>
      </trkpt>
      <trkpt lat="45.34871" lon="4.75921">
        <ele>136.64</ele>
        <time>2022-10-05T12:40:01Z</time>
      </trkpt>
      <trkpt lat="45.3484" lon="4.75925">
        <ele>136.16</ele>
        <time>2022-10-05T12:40:23Z</time>
      </trkpt>
      <trkpt lat="45.34815" lon="4.75927">
        <ele>136.64</ele>
        <time>2022-10-05T12:40:44Z</time>
      </trkpt>
      <trkpt lat="45.34783" lon="4.75937">
        <ele>136.16</ele>
        <time>2022-10-05T12:41:07Z</time>
      </trkpt>
      <trkpt lat="45.34775" lon="4.75938">
        <ele>136.16</ele>
        <time>2022-10-05T12:41:13Z</time>
      </trkpt>
      <trkpt lat="45.34749" lon="4.75947">
        <ele>135.68</ele>
        <time>2022-10-05T12:41:34Z</time>
      </trkpt>
      <trkpt lat="45.34718" lon="4.75959">
        <ele>136.64</ele>
        <time>2022-10-05T12:41:56Z</time>
      </trkpt>
      <trkpt lat="45.34691" lon="4.75965">
        <ele>136.16</ele>
        <time>2022-10-05T12:42:17Z</time>
      </trkpt>
      <trkpt lat="45.34662" lon="4.75973">
        <ele>135.2</ele>
        <time>2022-10-05T12:42:38Z</time>
      </trkpt>
      <trkpt lat="45.34636" lon="4.75975">
        <ele>135.2</ele>
        <time>2022-10-05T12:42:57Z</time>
      </trkpt>
      <trkpt lat="45.34606" lon="4.75972">
        <ele>136.16</ele>
        <time>2022-10-05T12:43:20Z</time>
      </trkpt>
      <trkpt lat="45.34576" lon="4.75971">
        <ele>135.2</ele>
        <time>2022-10-05T12:43:41Z</time>
      </trkpt>
      <trkpt lat="45.34547" lon="4.7597">
        <ele>135.68</ele>
        <time>2022-10-05T12:44:03Z</time>
      </trkpt>
      <trkpt lat="45.34517" lon="4.75978">
        <ele>136.16</ele>
        <time>2022-10-05T12:44:26Z</time>
      </trkpt>
      <trkpt lat="45.34489" lon="4.75986">
        <ele>136.16</ele>
        <time>2022-10-05T12:44:47Z</time>
      </trkpt>
      <trkpt lat="45.34474" lon="4.75979">
        <ele>136.16</ele>
        <time>2022-10-05T12:45:03Z</time>
      </trkpt>
      <trkpt lat="45.34469" lon="4.75968">
        <ele>136.64</ele>
        <time>2022-10-05T12:45:18Z</time>
      </trkpt>
      <trkpt lat="45.34459" lon="4.75953">
        <ele>136.64</ele>
        <time>2022-10-05T12:45:34Z</time>
      </trkpt>
      <trkpt lat="45.34458" lon="4.75951">
        <ele>136.64</ele>
        <time>2022-10-05T12:45:35Z</time>
      </trkpt>
      <trkpt lat="45.34446" lon="4.7593">
        <ele>136.64</ele>
        <time>2022-10-05T12:45:51Z</time>
      </trkpt>
      <trkpt lat="45.34432" lon="4.75907">
        <ele>137.61</ele>
        <time>2022-10-05T12:46:11Z</time>
      </trkpt>
      <trkpt lat="45.34422" lon="4.75882">
        <ele>137.61</ele>
        <time>2022-10-05T12:46:27Z</time>
      </trkpt>
      <trkpt lat="45.34415" lon="4.75849">
        <ele>139.05</ele>
        <time>2022-10-05T12:46:45Z</time>
      </trkpt>
      <trkpt lat="45.3442" lon="4.75815">
        <ele>138.57</ele>
        <time>2022-10-05T12:47:03Z</time>
      </trkpt>
      <trkpt lat="45.3444" lon="4.75796">
        <ele>138.57</ele>
        <time>2022-10-05T12:47:21Z</time>
      </trkpt>
      <trkpt lat="45.34459" lon="4.75777">
        <ele>138.57</ele>
        <time>2022-10-05T12:47:41Z</time>
      </trkpt>
      <trkpt lat="45.34481" lon="4.75754">
        <ele>139.53</ele>
        <time>2022-10-05T12:48:02Z</time>
      </trkpt>
      <trkpt lat="45.3449" lon="4.75724">
        <ele>140.49</ele>
        <time>2022-10-05T12:48:23Z</time>
      </trkpt>
      <trkpt lat="45.34495" lon="4.75705">
        <ele>141.45</ele>
        <time>2022-10-05T12:48:37Z</time>
      </trkpt>
      <trkpt lat="45.345" lon="4.75714">
        <ele>141.45</ele>
        <time>2022-10-05T12:48:50Z</time>
      </trkpt>
      <trkpt lat="45.34503" lon="4.75713">
        <ele>140.97</ele>
        <time>2022-10-05T12:48:54Z</time>
      </trkpt>
      <trkpt lat="45.34506" lon="4.75714">
        <ele>140.97</ele>
        <time>2022-10-05T12:48:56Z</time>
      </trkpt>
      <trkpt lat="45.34507" lon="4.75715">
        <ele>140.49</ele>
        <time>2022-10-05T12:48:57Z</time>
      </trkpt>
      <trkpt lat="45.34509" lon="4.75716">
        <ele>140.01</ele>
        <time>2022-10-05T12:48:58Z</time>
      </trkpt>
      <trkpt lat="45.3451" lon="4.75717">
        <ele>140.01</ele>
        <time>2022-10-05T12:48:59Z</time>
      </trkpt>
      <trkpt lat="45.34512" lon="4.75718">
        <ele>140.01</ele>
        <time>2022-10-05T12:49:00Z</time>
      </trkpt>
      <trkpt lat="45.34531" lon="4.7573">
        <ele>139.53</ele>
        <time>2022-10-05T12:49:15Z</time>
      </trkpt>
      <trkpt lat="45.34536" lon="4.7573">
        <ele>139.53</ele>
        <time>2022-10-05T12:49:21Z</time>
      </trkpt>
      <trkpt lat="45.34538" lon="4.7573">
        <ele>139.53</ele>
        <time>2022-10-05T12:49:22Z</time>
      </trkpt>
      <trkpt lat="45.34565" lon="4.75738">
        <ele>139.05</ele>
        <time>2022-10-05T12:49:38Z</time>
      </trkpt>
      <trkpt lat="45.34582" lon="4.75734">
        <ele>139.05</ele>
        <time>2022-10-05T12:49:54Z</time>
      </trkpt>
      <trkpt lat="45.346" lon="4.7573">
        <ele>139.05</ele>
        <time>2022-10-05T12:50:09Z</time>
      </trkpt>
      <trkpt lat="45.34617" lon="4.75722">
        <ele>139.05</ele>
        <time>2022-10-05T12:50:25Z</time>
      </trkpt>
      <trkpt lat="45.34616" lon="4.75716">
        <ele>140.01</ele>
        <time>2022-10-05T12:50:38Z</time>
      </trkpt>
      <trkpt lat="45.34615" lon="4.75716">
        <ele>139.53</ele>
        <time>2022-10-05T12:50:39Z</time>
      </trkpt>
      <trkpt lat="45.34596" lon="4.75719">
        <ele>140.97</ele>
        <time>2022-10-05T12:50:55Z</time>
      </trkpt>
      <trkpt lat="45.34589" lon="4.75715">
        <ele>141.45</ele>
        <time>2022-10-05T12:51:02Z</time>
      </trkpt>
      <trkpt lat="45.34588" lon="4.75715">
        <ele>141.45</ele>
        <time>2022-10-05T12:51:03Z</time>
      </trkpt>
      <trkpt lat="45.34587" lon="4.75714">
        <ele>141.45</ele>
        <time>2022-10-05T12:51:04Z</time>
      </trkpt>
      <trkpt lat="45.34585" lon="4.75713">
        <ele>141.93</ele>
        <time>2022-10-05T12:51:05Z</time>
      </trkpt>
      <trkpt lat="45.34584" lon="4.75713">
        <ele>141.93</ele>
        <time>2022-10-05T12:51:06Z</time>
      </trkpt>
      <trkpt lat="45.34575" lon="4.75711">
        <ele>142.41</ele>
        <time>2022-10-05T12:51:19Z</time>
      </trkpt>
      <trkpt lat="45.3458" lon="4.75702">
        <ele>142.41</ele>
        <time>2022-10-05T12:51:34Z</time>
      </trkpt>
      <trkpt lat="45.34582" lon="4.75701">
        <ele>142.41</ele>
        <time>2022-10-05T12:51:36Z</time>
      </trkpt>
      <trkpt lat="45.34604" lon="4.75691">
        <ele>142.41</ele>
        <time>2022-10-05T12:51:51Z</time>
      </trkpt>
      <trkpt lat="45.34622" lon="4.75686">
        <ele>142.89</ele>
        <time>2022-10-05T12:52:07Z</time>
      </trkpt>
      <trkpt lat="45.34629" lon="4.75686">
        <ele>143.85</ele>
        <time>2022-10-05T12:52:19Z</time>
      </trkpt>
      <trkpt lat="45.34629" lon="4.75677">
        <ele>143.85</ele>
        <time>2022-10-05T12:52:34Z</time>
      </trkpt>
      <trkpt lat="45.34629" lon="4.75675">
        <ele>143.85</ele>
        <time>2022-10-05T12:52:35Z</time>
      </trkpt>
      <trkpt lat="45.34628" lon="4.75674">
        <ele>143.85</ele>
        <time>2022-10-05T12:52:36Z</time>
      </trkpt>
      <trkpt lat="45.3463" lon="4.75678">
        <ele>143.85</ele>
        <time>2022-10-05T12:52:43Z</time>
      </trkpt>
      <trkpt lat="45.3463" lon="4.7568">
        <ele>143.85</ele>
        <time>2022-10-05T12:52:44Z</time>
      </trkpt>
      <trkpt lat="45.34633" lon="4.75685">
        <ele>143.37</ele>
        <time>2022-10-05T12:52:48Z</time>
      </trkpt>
      <trkpt lat="45.34635" lon="4.75685">
        <ele>143.37</ele>
        <time>2022-10-05T12:52:49Z</time>
      </trkpt>
      <trkpt lat="45.34636" lon="4.75685">
        <ele>143.37</ele>
        <time>2022-10-05T12:52:50Z</time>
      </trkpt>
      <trkpt lat="45.34655" lon="4.757">
        <ele>141.45</ele>
        <time>2022-10-05T12:53:09Z</time>
      </trkpt>
      <trkpt lat="45.34655" lon="4.7569">
        <ele>141.93</ele>
        <time>2022-10-05T12:53:29Z</time>
      </trkpt>
      <trkpt lat="45.34652" lon="4.7569">
        <ele>142.41</ele>
        <time>2022-10-05T12:53:36Z</time>
      </trkpt>
      <trkpt lat="45.34636" lon="4.75686">
        <ele>143.37</ele>
        <time>2022-10-05T12:53:52Z</time>
      </trkpt>
      <trkpt lat="45.34635" lon="4.75686">
        <ele>142.89</ele>
        <time>2022-10-05T12:53:53Z</time>
      </trkpt>
      <trkpt lat="45.34623" lon="4.75686">
        <ele>143.37</ele>
        <time>2022-10-05T12:54:10Z</time>
      </trkpt>
      <trkpt lat="45.34623" lon="4.7568">
        <ele>143.37</ele>
        <time>2022-10-05T12:54:15Z</time>
      </trkpt>
      <trkpt lat="45.34619" lon="4.75666">
        <ele>143.37</ele>
        <time>2022-10-05T12:54:33Z</time>
      </trkpt>
      <trkpt lat="45.34614" lon="4.75657">
        <ele>143.85</ele>
        <time>2022-10-05T12:54:48Z</time>
      </trkpt>
      <trkpt lat="45.34605" lon="4.7566">
        <ele>142.89</ele>
        <time>2022-10-05T12:55:05Z</time>
      </trkpt>
      <trkpt lat="45.34581" lon="4.75665">
        <ele>142.41</ele>
        <time>2022-10-05T12:55:25Z</time>
      </trkpt>
      <trkpt lat="45.34564" lon="4.75677">
        <ele>141.93</ele>
        <time>2022-10-05T12:55:37Z</time>
      </trkpt>
      <trkpt lat="45.34533" lon="4.75685">
        <ele>142.41</ele>
        <time>2022-10-05T12:55:59Z</time>
      </trkpt>
      <trkpt lat="45.34503" lon="4.75683">
        <ele>143.37</ele>
        <time>2022-10-05T12:56:22Z</time>
      </trkpt>
      <trkpt lat="45.3448" lon="4.75682">
        <ele>142.89</ele>
        <time>2022-10-05T12:56:42Z</time>
      </trkpt>
      <trkpt lat="45.34469" lon="4.75675">
        <ele>142.89</ele>
        <time>2022-10-05T12:56:53Z</time>
      </trkpt>
      <trkpt lat="45.34469" lon="4.75638">
        <ele>144.34</ele>
        <time>2022-10-05T12:57:11Z</time>
      </trkpt>
      <trkpt lat="45.34467" lon="4.75616">
        <ele>144.82</ele>
        <time>2022-10-05T12:57:25Z</time>
      </trkpt>
      <trkpt lat="45.34463" lon="4.75592">
        <ele>147.22</ele>
        <time>2022-10-05T12:57:41Z</time>
      </trkpt>
      <trkpt lat="45.34451" lon="4.75568">
        <ele>150.1</ele>
        <time>2022-10-05T12:57:58Z</time>
      </trkpt>
      <trkpt lat="45.3444" lon="4.75564">
        <ele>152.03</ele>
        <time>2022-10-05T12:58:11Z</time>
      </trkpt>
      <trkpt lat="45.34443" lon="4.75581">
        <ele>154.91</ele>
        <time>2022-10-05T12:58:25Z</time>
      </trkpt>
      <trkpt lat="45.3444" lon="4.75583">
        <ele>155.87</ele>
        <time>2022-10-05T12:58:28Z</time>
      </trkpt>
      <trkpt lat="45.34425" lon="4.75571">
        <ele>159.24</ele>
        <time>2022-10-05T12:58:42Z</time>
      </trkpt>
      <trkpt lat="45.34417" lon="4.75559">
        <ele>161.64</ele>
        <time>2022-10-05T12:58:56Z</time>
      </trkpt>
      <trkpt lat="45.34409" lon="4.75545">
        <ele>165</ele>
        <time>2022-10-05T12:59:11Z</time>
      </trkpt>
      <trkpt lat="45.34408" lon="4.75544">
        <ele>165.96</ele>
        <time>2022-10-05T12:59:13Z</time>
      </trkpt>
      <trkpt lat="45.34396" lon="4.75526">
        <ele>168.85</ele>
        <time>2022-10-05T12:59:31Z</time>
      </trkpt>
      <trkpt lat="45.34382" lon="4.75505">
        <ele>172.21</ele>
        <time>2022-10-05T12:59:49Z</time>
      </trkpt>
      <trkpt lat="45.34371" lon="4.75493">
        <ele>175.1</ele>
        <time>2022-10-05T13:00:04Z</time>
      </trkpt>
      <trkpt lat="45.34354" lon="4.75482">
        <ele>177.98</ele>
        <time>2022-10-05T13:00:21Z</time>
      </trkpt>
      <trkpt lat="45.34345" lon="4.75476">
        <ele>180.87</ele>
        <time>2022-10-05T13:00:33Z</time>
      </trkpt>
      <trkpt lat="45.34335" lon="4.75458">
        <ele>184.71</ele>
        <time>2022-10-05T13:00:51Z</time>
      </trkpt>
      <trkpt lat="45.34333" lon="4.75438">
        <ele>186.15</ele>
        <time>2022-10-05T13:01:08Z</time>
      </trkpt>
      <trkpt lat="45.34316" lon="4.7543">
        <ele>189.04</ele>
        <time>2022-10-05T13:01:28Z</time>
      </trkpt>
      <trkpt lat="45.3431" lon="4.75431">
        <ele>189.04</ele>
        <time>2022-10-05T13:01:46Z</time>
      </trkpt>
      <trkpt lat="45.34315" lon="4.75426">
        <ele>188.56</ele>
        <time>2022-10-05T13:02:01Z</time>
      </trkpt>
      <trkpt lat="45.34309" lon="4.7543">
        <ele>189.04</ele>
        <time>2022-10-05T13:02:29Z</time>
      </trkpt>
      <trkpt lat="45.34296" lon="4.75426">
        <ele>192.4</ele>
        <time>2022-10-05T13:02:45Z</time>
      </trkpt>
      <trkpt lat="45.34282" lon="4.75421">
        <ele>195.28</ele>
        <time>2022-10-05T13:02:58Z</time>
      </trkpt>
      <trkpt lat="45.34269" lon="4.75407">
        <ele>198.65</ele>
        <time>2022-10-05T13:03:13Z</time>
      </trkpt>
      <trkpt lat="45.34256" lon="4.75395">
        <ele>201.53</ele>
        <time>2022-10-05T13:03:30Z</time>
      </trkpt>
      <trkpt lat="45.34244" lon="4.75383">
        <ele>204.9</ele>
        <time>2022-10-05T13:03:46Z</time>
      </trkpt>
      <trkpt lat="45.34243" lon="4.75383">
        <ele>204.9</ele>
        <time>2022-10-05T13:03:47Z</time>
      </trkpt>
      <trkpt lat="45.3423" lon="4.75367">
        <ele>208.26</ele>
        <time>2022-10-05T13:04:05Z</time>
      </trkpt>
      <trkpt lat="45.34219" lon="4.75358">
        <ele>211.63</ele>
        <time>2022-10-05T13:04:18Z</time>
      </trkpt>
      <trkpt lat="45.34207" lon="4.75346">
        <ele>214.99</ele>
        <time>2022-10-05T13:04:35Z</time>
      </trkpt>
      <trkpt lat="45.34197" lon="4.75334">
        <ele>217.88</ele>
        <time>2022-10-05T13:04:49Z</time>
      </trkpt>
      <trkpt lat="45.34184" lon="4.75322">
        <ele>221.24</ele>
        <time>2022-10-05T13:05:05Z</time>
      </trkpt>
      <trkpt lat="45.34177" lon="4.75308">
        <ele>223.16</ele>
        <time>2022-10-05T13:05:17Z</time>
      </trkpt>
      <trkpt lat="45.34169" lon="4.75285">
        <ele>225.09</ele>
        <time>2022-10-05T13:05:31Z</time>
      </trkpt>
      <trkpt lat="45.34166" lon="4.75266">
        <ele>227.97</ele>
        <time>2022-10-05T13:05:44Z</time>
      </trkpt>
      <trkpt lat="45.34166" lon="4.75246">
        <ele>231.33</ele>
        <time>2022-10-05T13:06:00Z</time>
      </trkpt>
      <trkpt lat="45.34153" lon="4.75223">
        <ele>233.74</ele>
        <time>2022-10-05T13:06:19Z</time>
      </trkpt>
      <trkpt lat="45.34151" lon="4.75221">
        <ele>234.22</ele>
        <time>2022-10-05T13:06:22Z</time>
      </trkpt>
      <trkpt lat="45.34141" lon="4.75207">
        <ele>237.1</ele>
        <time>2022-10-05T13:06:35Z</time>
      </trkpt>
      <trkpt lat="45.34134" lon="4.75192">
        <ele>239.99</ele>
        <time>2022-10-05T13:06:48Z</time>
      </trkpt>
      <trkpt lat="45.34121" lon="4.75177">
        <ele>242.87</ele>
        <time>2022-10-05T13:07:06Z</time>
      </trkpt>
      <trkpt lat="45.34115" lon="4.75169">
        <ele>245.27</ele>
        <time>2022-10-05T13:07:14Z</time>
      </trkpt>
      <trkpt lat="45.341" lon="4.7515">
        <ele>248.16</ele>
        <time>2022-10-05T13:07:33Z</time>
      </trkpt>
      <trkpt lat="45.34096" lon="4.75134">
        <ele>251.52</ele>
        <time>2022-10-05T13:07:48Z</time>
      </trkpt>
      <trkpt lat="45.34097" lon="4.75131">
        <ele>250.56</ele>
        <time>2022-10-05T13:08:03Z</time>
      </trkpt>
      <trkpt lat="45.34096" lon="4.7513">
        <ele>252.48</ele>
        <time>2022-10-05T13:13:49Z</time>
      </trkpt>
      <trkpt lat="45.34105" lon="4.75115">
        <ele>253.93</ele>
        <time>2022-10-05T13:14:04Z</time>
      </trkpt>
      <trkpt lat="45.34109" lon="4.75112">
        <ele>255.37</ele>
        <time>2022-10-05T13:14:09Z</time>
      </trkpt>
      <trkpt lat="45.34119" lon="4.75101">
        <ele>258.73</ele>
        <time>2022-10-05T13:14:24Z</time>
      </trkpt>
      <trkpt lat="45.34116" lon="4.75087">
        <ele>260.17</ele>
        <time>2022-10-05T13:14:36Z</time>
      </trkpt>
      <trkpt lat="45.34114" lon="4.75059">
        <ele>263.54</ele>
        <time>2022-10-05T13:14:56Z</time>
      </trkpt>
      <trkpt lat="45.34114" lon="4.75032">
        <ele>266.42</ele>
        <time>2022-10-05T13:15:14Z</time>
      </trkpt>
      <trkpt lat="45.34114" lon="4.75003">
        <ele>269.31</ele>
        <time>2022-10-05T13:15:35Z</time>
      </trkpt>
      <trkpt lat="45.3412" lon="4.74981">
        <ele>272.19</ele>
        <time>2022-10-05T13:15:52Z</time>
      </trkpt>
      <trkpt lat="45.34123" lon="4.74945">
        <ele>275.56</ele>
        <time>2022-10-05T13:16:14Z</time>
      </trkpt>
      <trkpt lat="45.34124" lon="4.74943">
        <ele>275.07</ele>
        <time>2022-10-05T13:16:15Z</time>
      </trkpt>
      <trkpt lat="45.34129" lon="4.74916">
        <ele>277</ele>
        <time>2022-10-05T13:16:35Z</time>
      </trkpt>
      <trkpt lat="45.34132" lon="4.74885">
        <ele>280.36</ele>
        <time>2022-10-05T13:16:54Z</time>
      </trkpt>
      <trkpt lat="45.34128" lon="4.74872">
        <ele>281.8</ele>
        <time>2022-10-05T13:17:07Z</time>
      </trkpt>
      <trkpt lat="45.34125" lon="4.7487">
        <ele>281.8</ele>
        <time>2022-10-05T13:17:10Z</time>
      </trkpt>
      <trkpt lat="45.34114" lon="4.74858">
        <ele>282.77</ele>
        <time>2022-10-05T13:17:22Z</time>
      </trkpt>
      <trkpt lat="45.34097" lon="4.74836">
        <ele>285.65</ele>
        <time>2022-10-05T13:17:43Z</time>
      </trkpt>
      <trkpt lat="45.34078" lon="4.74817">
        <ele>288.53</ele>
        <time>2022-10-05T13:18:03Z</time>
      </trkpt>
      <trkpt lat="45.34065" lon="4.74797">
        <ele>291.42</ele>
        <time>2022-10-05T13:18:21Z</time>
      </trkpt>
      <trkpt lat="45.34058" lon="4.74764">
        <ele>293.34</ele>
        <time>2022-10-05T13:18:42Z</time>
      </trkpt>
      <trkpt lat="45.34051" lon="4.74758">
        <ele>296.22</ele>
        <time>2022-10-05T13:18:53Z</time>
      </trkpt>
      <trkpt lat="45.34037" lon="4.74752">
        <ele>298.15</ele>
        <time>2022-10-05T13:19:07Z</time>
      </trkpt>
      <trkpt lat="45.34015" lon="4.74742">
        <ele>300.07</ele>
        <time>2022-10-05T13:19:28Z</time>
      </trkpt>
      <trkpt lat="45.33997" lon="4.74728">
        <ele>301.99</ele>
        <time>2022-10-05T13:19:46Z</time>
      </trkpt>
      <trkpt lat="45.33982" lon="4.74713">
        <ele>305.36</ele>
        <time>2022-10-05T13:20:03Z</time>
      </trkpt>
      <trkpt lat="45.33981" lon="4.74712">
        <ele>305.84</ele>
        <time>2022-10-05T13:20:04Z</time>
      </trkpt>
      <trkpt lat="45.33966" lon="4.74693">
        <ele>308.72</ele>
        <time>2022-10-05T13:20:22Z</time>
      </trkpt>
      <trkpt lat="45.33962" lon="4.74683">
        <ele>310.64</ele>
        <time>2022-10-05T13:20:31Z</time>
      </trkpt>
      <trkpt lat="45.33963" lon="4.74685">
        <ele>309.68</ele>
        <time>2022-10-05T13:20:47Z</time>
      </trkpt>
      <trkpt lat="45.33963" lon="4.74683">
        <ele>310.16</ele>
        <time>2022-10-05T13:21:11Z</time>
      </trkpt>
      <trkpt lat="45.33962" lon="4.74681">
        <ele>310.16</ele>
        <time>2022-10-05T13:21:42Z</time>
      </trkpt>
      <trkpt lat="45.33962" lon="4.7468">
        <ele>312.09</ele>
        <time>2022-10-05T13:21:49Z</time>
      </trkpt>
      <trkpt lat="45.33961" lon="4.74678">
        <ele>310.64</ele>
        <time>2022-10-05T13:22:24Z</time>
      </trkpt>
      <trkpt lat="45.33961" lon="4.74675">
        <ele>311.12</ele>
        <time>2022-10-05T13:22:54Z</time>
      </trkpt>
      <trkpt lat="45.33961" lon="4.74678">
        <ele>311.12</ele>
        <time>2022-10-05T13:23:18Z</time>
      </trkpt>
      <trkpt lat="45.33962" lon="4.74678">
        <ele>311.12</ele>
        <time>2022-10-05T13:23:44Z</time>
      </trkpt>
      <trkpt lat="45.33962" lon="4.74677">
        <ele>311.6</ele>
        <time>2022-10-05T13:24:04Z</time>
      </trkpt>
      <trkpt lat="45.33961" lon="4.74674">
        <ele>311.6</ele>
        <time>2022-10-05T13:24:21Z</time>
      </trkpt>
      <trkpt lat="45.33954" lon="4.74672">
        <ele>312.57</ele>
        <time>2022-10-05T13:24:38Z</time>
      </trkpt>
      <trkpt lat="45.33938" lon="4.74665">
        <ele>315.45</ele>
        <time>2022-10-05T13:24:54Z</time>
      </trkpt>
      <trkpt lat="45.33925" lon="4.74655">
        <ele>318.33</ele>
        <time>2022-10-05T13:25:08Z</time>
      </trkpt>
      <trkpt lat="45.33921" lon="4.74651">
        <ele>319.3</ele>
        <time>2022-10-05T13:25:12Z</time>
      </trkpt>
      <trkpt lat="45.33909" lon="4.74635">
        <ele>322.66</ele>
        <time>2022-10-05T13:25:29Z</time>
      </trkpt>
      <trkpt lat="45.33896" lon="4.74626">
        <ele>324.58</ele>
        <time>2022-10-05T13:25:48Z</time>
      </trkpt>
      <trkpt lat="45.33892" lon="4.74612">
        <ele>326.02</ele>
        <time>2022-10-05T13:26:08Z</time>
      </trkpt>
      <trkpt lat="45.33893" lon="4.74607">
        <ele>326.02</ele>
        <time>2022-10-05T13:26:20Z</time>
      </trkpt>
      <trkpt lat="45.33884" lon="4.74594">
        <ele>327.47</ele>
        <time>2022-10-05T13:26:36Z</time>
      </trkpt>
      <trkpt lat="45.33868" lon="4.74582">
        <ele>328.91</ele>
        <time>2022-10-05T13:26:53Z</time>
      </trkpt>
      <trkpt lat="45.33848" lon="4.74571">
        <ele>330.83</ele>
        <time>2022-10-05T13:27:12Z</time>
      </trkpt>
      <trkpt lat="45.33826" lon="4.74562">
        <ele>331.79</ele>
        <time>2022-10-05T13:27:31Z</time>
      </trkpt>
      <trkpt lat="45.338" lon="4.74553">
        <ele>332.27</ele>
        <time>2022-10-05T13:27:53Z</time>
      </trkpt>
      <trkpt lat="45.33787" lon="4.74547">
        <ele>333.71</ele>
        <time>2022-10-05T13:28:08Z</time>
      </trkpt>
      <trkpt lat="45.33768" lon="4.74536">
        <ele>335.16</ele>
        <time>2022-10-05T13:28:25Z</time>
      </trkpt>
      <trkpt lat="45.33746" lon="4.74521">
        <ele>335.64</ele>
        <time>2022-10-05T13:28:44Z</time>
      </trkpt>
      <trkpt lat="45.3374" lon="4.745">
        <ele>335.64</ele>
        <time>2022-10-05T13:28:55Z</time>
      </trkpt>
      <trkpt lat="45.33739" lon="4.74497">
        <ele>334.68</ele>
        <time>2022-10-05T13:28:56Z</time>
      </trkpt>
      <trkpt lat="45.33738" lon="4.74495">
        <ele>335.16</ele>
        <time>2022-10-05T13:28:57Z</time>
      </trkpt>
      <trkpt lat="45.33732" lon="4.74483">
        <ele>336.6</ele>
        <time>2022-10-05T13:29:05Z</time>
      </trkpt>
      <trkpt lat="45.33732" lon="4.74481">
        <ele>336.6</ele>
        <time>2022-10-05T13:29:06Z</time>
      </trkpt>
      <trkpt lat="45.33732" lon="4.7448">
        <ele>336.6</ele>
        <time>2022-10-05T13:29:07Z</time>
      </trkpt>
      <trkpt lat="45.33736" lon="4.74474">
        <ele>335.64</ele>
        <time>2022-10-05T13:29:14Z</time>
      </trkpt>
      <trkpt lat="45.33729" lon="4.74483">
        <ele>336.12</ele>
        <time>2022-10-05T13:29:26Z</time>
      </trkpt>
      <trkpt lat="45.33735" lon="4.74483">
        <ele>336.12</ele>
        <time>2022-10-05T13:29:37Z</time>
      </trkpt>
      <trkpt lat="45.33738" lon="4.74493">
        <ele>335.16</ele>
        <time>2022-10-05T13:29:44Z</time>
      </trkpt>
      <trkpt lat="45.33736" lon="4.74499">
        <ele>335.64</ele>
        <time>2022-10-05T13:29:58Z</time>
      </trkpt>
      <trkpt lat="45.33732" lon="4.74494">
        <ele>336.12</ele>
        <time>2022-10-05T13:30:08Z</time>
      </trkpt>
      <trkpt lat="45.33734" lon="4.74472">
        <ele>336.6</ele>
        <time>2022-10-05T13:30:22Z</time>
      </trkpt>
      <trkpt lat="45.33734" lon="4.74471">
        <ele>337.08</ele>
        <time>2022-10-05T13:30:25Z</time>
      </trkpt>
      <trkpt lat="45.33743" lon="4.74456">
        <ele>335.64</ele>
        <time>2022-10-05T13:30:44Z</time>
      </trkpt>
      <trkpt lat="45.33763" lon="4.74431">
        <ele>335.16</ele>
        <time>2022-10-05T13:31:04Z</time>
      </trkpt>
      <trkpt lat="45.3379" lon="4.74425">
        <ele>334.2</ele>
        <time>2022-10-05T13:31:25Z</time>
      </trkpt>
      <trkpt lat="45.33796" lon="4.74424">
        <ele>333.71</ele>
        <time>2022-10-05T13:31:32Z</time>
      </trkpt>
      <trkpt lat="45.33794" lon="4.74428">
        <ele>333.23</ele>
        <time>2022-10-05T13:31:43Z</time>
      </trkpt>
      <trkpt lat="45.33789" lon="4.74429">
        <ele>333.71</ele>
        <time>2022-10-05T13:31:59Z</time>
      </trkpt>
      <trkpt lat="45.33792" lon="4.74416">
        <ele>334.2</ele>
        <time>2022-10-05T13:32:21Z</time>
      </trkpt>
      <trkpt lat="45.33788" lon="4.74388">
        <ele>334.2</ele>
        <time>2022-10-05T13:32:40Z</time>
      </trkpt>
      <trkpt lat="45.3378" lon="4.7436">
        <ele>331.79</ele>
        <time>2022-10-05T13:32:58Z</time>
      </trkpt>
      <trkpt lat="45.33778" lon="4.74331">
        <ele>330.83</ele>
        <time>2022-10-05T13:33:12Z</time>
      </trkpt>
      <trkpt lat="45.33776" lon="4.7432">
        <ele>330.83</ele>
        <time>2022-10-05T13:33:20Z</time>
      </trkpt>
      <trkpt lat="45.33768" lon="4.74279">
        <ele>330.83</ele>
        <time>2022-10-05T13:33:38Z</time>
      </trkpt>
      <trkpt lat="45.33766" lon="4.74273">
        <ele>329.39</ele>
        <time>2022-10-05T13:33:42Z</time>
      </trkpt>
      <trkpt lat="45.33764" lon="4.74269">
        <ele>330.83</ele>
        <time>2022-10-05T13:33:45Z</time>
      </trkpt>
      <trkpt lat="45.33759" lon="4.74251">
        <ele>329.87</ele>
        <time>2022-10-05T13:33:58Z</time>
      </trkpt>
      <trkpt lat="45.33758" lon="4.74245">
        <ele>329.87</ele>
        <time>2022-10-05T13:34:02Z</time>
      </trkpt>
      <trkpt lat="45.3376" lon="4.74227">
        <ele>329.87</ele>
        <time>2022-10-05T13:34:10Z</time>
      </trkpt>
      <trkpt lat="45.33771" lon="4.74205">
        <ele>329.87</ele>
        <time>2022-10-05T13:34:25Z</time>
      </trkpt>
      <trkpt lat="45.33785" lon="4.74196">
        <ele>329.39</ele>
        <time>2022-10-05T13:34:42Z</time>
      </trkpt>
      <trkpt lat="45.33809" lon="4.74179">
        <ele>329.87</ele>
        <time>2022-10-05T13:34:58Z</time>
      </trkpt>
      <trkpt lat="45.33839" lon="4.74151">
        <ele>330.35</ele>
        <time>2022-10-05T13:35:15Z</time>
      </trkpt>
      <trkpt lat="45.33841" lon="4.74131">
        <ele>329.39</ele>
        <time>2022-10-05T13:35:30Z</time>
      </trkpt>
      <trkpt lat="45.33845" lon="4.74123">
        <ele>328.91</ele>
        <time>2022-10-05T13:35:37Z</time>
      </trkpt>
      <trkpt lat="45.33853" lon="4.74097">
        <ele>327.95</ele>
        <time>2022-10-05T13:35:53Z</time>
      </trkpt>
      <trkpt lat="45.33859" lon="4.74074">
        <ele>326.02</ele>
        <time>2022-10-05T13:36:06Z</time>
      </trkpt>
      <trkpt lat="45.33863" lon="4.74066">
        <ele>326.5</ele>
        <time>2022-10-05T13:36:13Z</time>
      </trkpt>
      <trkpt lat="45.33869" lon="4.7405">
        <ele>325.06</ele>
        <time>2022-10-05T13:36:26Z</time>
      </trkpt>
      <trkpt lat="45.33869" lon="4.74047">
        <ele>325.54</ele>
        <time>2022-10-05T13:36:38Z</time>
      </trkpt>
      <trkpt lat="45.33868" lon="4.74046">
        <ele>325.06</ele>
        <time>2022-10-05T13:36:53Z</time>
      </trkpt>
      <trkpt lat="45.33872" lon="4.74039">
        <ele>324.58</ele>
        <time>2022-10-05T13:37:07Z</time>
      </trkpt>
      <trkpt lat="45.33877" lon="4.74029">
        <ele>323.62</ele>
        <time>2022-10-05T13:37:21Z</time>
      </trkpt>
      <trkpt lat="45.33886" lon="4.74005">
        <ele>322.66</ele>
        <time>2022-10-05T13:37:37Z</time>
      </trkpt>
      <trkpt lat="45.33886" lon="4.7398">
        <ele>321.7</ele>
        <time>2022-10-05T13:37:55Z</time>
      </trkpt>
      <trkpt lat="45.33887" lon="4.73975">
        <ele>321.7</ele>
        <time>2022-10-05T13:37:59Z</time>
      </trkpt>
      <trkpt lat="45.33887" lon="4.73967">
        <ele>323.14</ele>
        <time>2022-10-05T13:38:03Z</time>
      </trkpt>
      <trkpt lat="45.33897" lon="4.73941">
        <ele>322.18</ele>
        <time>2022-10-05T13:38:18Z</time>
      </trkpt>
      <trkpt lat="45.33909" lon="4.73901">
        <ele>320.74</ele>
        <time>2022-10-05T13:38:37Z</time>
      </trkpt>
      <trkpt lat="45.33924" lon="4.73881">
        <ele>321.22</ele>
        <time>2022-10-05T13:38:55Z</time>
      </trkpt>
      <trkpt lat="45.33935" lon="4.73851">
        <ele>320.26</ele>
        <time>2022-10-05T13:39:13Z</time>
      </trkpt>
      <trkpt lat="45.33946" lon="4.73823">
        <ele>320.74</ele>
        <time>2022-10-05T13:39:27Z</time>
      </trkpt>
      <trkpt lat="45.33959" lon="4.73791">
        <ele>317.85</ele>
        <time>2022-10-05T13:39:46Z</time>
      </trkpt>
      <trkpt lat="45.33972" lon="4.73763">
        <ele>317.37</ele>
        <time>2022-10-05T13:40:03Z</time>
      </trkpt>
      <trkpt lat="45.33975" lon="4.7376">
        <ele>318.33</ele>
        <time>2022-10-05T13:40:07Z</time>
      </trkpt>
      <trkpt lat="45.33993" lon="4.73731">
        <ele>316.89</ele>
        <time>2022-10-05T13:40:28Z</time>
      </trkpt>
      <trkpt lat="45.33998" lon="4.73727">
        <ele>315.45</ele>
        <time>2022-10-05T13:40:32Z</time>
      </trkpt>
      <trkpt lat="45.34011" lon="4.73707">
        <ele>315.93</ele>
        <time>2022-10-05T13:40:47Z</time>
      </trkpt>
      <trkpt lat="45.34012" lon="4.73705">
        <ele>316.41</ele>
        <time>2022-10-05T13:40:48Z</time>
      </trkpt>
      <trkpt lat="45.34013" lon="4.73704">
        <ele>315.93</ele>
        <time>2022-10-05T13:40:49Z</time>
      </trkpt>
      <trkpt lat="45.34029" lon="4.73683">
        <ele>315.45</ele>
        <time>2022-10-05T13:41:05Z</time>
      </trkpt>
      <trkpt lat="45.34032" lon="4.73675">
        <ele>313.53</ele>
        <time>2022-10-05T13:41:14Z</time>
      </trkpt>
      <trkpt lat="45.34036" lon="4.73668">
        <ele>314.49</ele>
        <time>2022-10-05T13:41:21Z</time>
      </trkpt>
      <trkpt lat="45.34064" lon="4.73635">
        <ele>312.09</ele>
        <time>2022-10-05T13:41:39Z</time>
      </trkpt>
      <trkpt lat="45.34072" lon="4.73608">
        <ele>310.64</ele>
        <time>2022-10-05T13:41:53Z</time>
      </trkpt>
      <trkpt lat="45.34071" lon="4.73594">
        <ele>309.2</ele>
        <time>2022-10-05T13:42:02Z</time>
      </trkpt>
      <trkpt lat="45.34069" lon="4.73586">
        <ele>308.72</ele>
        <time>2022-10-05T13:42:08Z</time>
      </trkpt>
      <trkpt lat="45.34073" lon="4.73551">
        <ele>308.72</ele>
        <time>2022-10-05T13:42:27Z</time>
      </trkpt>
      <trkpt lat="45.34071" lon="4.73544">
        <ele>308.72</ele>
        <time>2022-10-05T13:42:41Z</time>
      </trkpt>
      <trkpt lat="45.34073" lon="4.73542">
        <ele>309.68</ele>
        <time>2022-10-05T13:42:42Z</time>
      </trkpt>
      <trkpt lat="45.34075" lon="4.73541">
        <ele>309.2</ele>
        <time>2022-10-05T13:42:43Z</time>
      </trkpt>
      <trkpt lat="45.34077" lon="4.7354">
        <ele>309.2</ele>
        <time>2022-10-05T13:42:44Z</time>
      </trkpt>
      <trkpt lat="45.34079" lon="4.73539">
        <ele>309.2</ele>
        <time>2022-10-05T13:42:45Z</time>
      </trkpt>
      <trkpt lat="45.34097" lon="4.73535">
        <ele>311.6</ele>
        <time>2022-10-05T13:43:02Z</time>
      </trkpt>
      <trkpt lat="45.34107" lon="4.7353">
        <ele>314.49</ele>
        <time>2022-10-05T13:43:13Z</time>
      </trkpt>
      <trkpt lat="45.34125" lon="4.73533">
        <ele>318.33</ele>
        <time>2022-10-05T13:43:29Z</time>
      </trkpt>
      <trkpt lat="45.34145" lon="4.73524">
        <ele>320.74</ele>
        <time>2022-10-05T13:43:46Z</time>
      </trkpt>
      <trkpt lat="45.34162" lon="4.7351">
        <ele>322.66</ele>
        <time>2022-10-05T13:44:02Z</time>
      </trkpt>
      <trkpt lat="45.34179" lon="4.73492">
        <ele>323.62</ele>
        <time>2022-10-05T13:44:19Z</time>
      </trkpt>
      <trkpt lat="45.34191" lon="4.73476">
        <ele>324.58</ele>
        <time>2022-10-05T13:44:34Z</time>
      </trkpt>
      <trkpt lat="45.34194" lon="4.73476">
        <ele>324.1</ele>
        <time>2022-10-05T13:44:40Z</time>
      </trkpt>
      <trkpt lat="45.34192" lon="4.7348">
        <ele>327.47</ele>
        <time>2022-10-05T13:44:43Z</time>
      </trkpt>
      <trkpt lat="45.34191" lon="4.73481">
        <ele>328.43</ele>
        <time>2022-10-05T13:44:44Z</time>
      </trkpt>
      <trkpt lat="45.34187" lon="4.73484">
        <ele>326.02</ele>
        <time>2022-10-05T13:44:47Z</time>
      </trkpt>
      <trkpt lat="45.34183" lon="4.73488">
        <ele>326.5</ele>
        <time>2022-10-05T13:44:56Z</time>
      </trkpt>
      <trkpt lat="45.34184" lon="4.73486">
        <ele>324.58</ele>
        <time>2022-10-05T13:45:07Z</time>
      </trkpt>
      <trkpt lat="45.34186" lon="4.73485">
        <ele>325.06</ele>
        <time>2022-10-05T13:45:09Z</time>
      </trkpt>
      <trkpt lat="45.34192" lon="4.73474">
        <ele>324.58</ele>
        <time>2022-10-05T13:45:18Z</time>
      </trkpt>
      <trkpt lat="45.34193" lon="4.73473">
        <ele>324.1</ele>
        <time>2022-10-05T13:45:19Z</time>
      </trkpt>
      <trkpt lat="45.34194" lon="4.73471">
        <ele>324.58</ele>
        <time>2022-10-05T13:45:20Z</time>
      </trkpt>
      <trkpt lat="45.34208" lon="4.73436">
        <ele>324.58</ele>
        <time>2022-10-05T13:45:39Z</time>
      </trkpt>
      <trkpt lat="45.34219" lon="4.73409">
        <ele>324.58</ele>
        <time>2022-10-05T13:45:56Z</time>
      </trkpt>
      <trkpt lat="45.34232" lon="4.73377">
        <ele>325.06</ele>
        <time>2022-10-05T13:46:15Z</time>
      </trkpt>
      <trkpt lat="45.34245" lon="4.73351">
        <ele>325.06</ele>
        <time>2022-10-05T13:46:32Z</time>
      </trkpt>
      <trkpt lat="45.34245" lon="4.73349">
        <ele>325.54</ele>
        <time>2022-10-05T13:46:46Z</time>
      </trkpt>
      <trkpt lat="45.34252" lon="4.73333">
        <ele>324.58</ele>
        <time>2022-10-05T13:46:57Z</time>
      </trkpt>
      <trkpt lat="45.34254" lon="4.73325">
        <ele>325.06</ele>
        <time>2022-10-05T13:47:06Z</time>
      </trkpt>
      <trkpt lat="45.34254" lon="4.73323">
        <ele>325.54</ele>
        <time>2022-10-05T13:47:07Z</time>
      </trkpt>
      <trkpt lat="45.34255" lon="4.73321">
        <ele>325.06</ele>
        <time>2022-10-05T13:47:08Z</time>
      </trkpt>
      <trkpt lat="45.3427" lon="4.73289">
        <ele>325.54</ele>
        <time>2022-10-05T13:47:28Z</time>
      </trkpt>
      <trkpt lat="45.34282" lon="4.7327">
        <ele>325.54</ele>
        <time>2022-10-05T13:47:43Z</time>
      </trkpt>
      <trkpt lat="45.34297" lon="4.73251">
        <ele>327.95</ele>
        <time>2022-10-05T13:47:59Z</time>
      </trkpt>
      <trkpt lat="45.34317" lon="4.73232">
        <ele>328.43</ele>
        <time>2022-10-05T13:48:17Z</time>
      </trkpt>
      <trkpt lat="45.34343" lon="4.73224">
        <ele>329.87</ele>
        <time>2022-10-05T13:48:36Z</time>
      </trkpt>
      <trkpt lat="45.34364" lon="4.73215">
        <ele>329.39</ele>
        <time>2022-10-05T13:48:54Z</time>
      </trkpt>
      <trkpt lat="45.34381" lon="4.73198">
        <ele>330.35</ele>
        <time>2022-10-05T13:49:11Z</time>
      </trkpt>
      <trkpt lat="45.34381" lon="4.73196">
        <ele>329.87</ele>
        <time>2022-10-05T13:49:12Z</time>
      </trkpt>
      <trkpt lat="45.34382" lon="4.73191">
        <ele>329.87</ele>
        <time>2022-10-05T13:49:15Z</time>
      </trkpt>
      <trkpt lat="45.34383" lon="4.7319">
        <ele>329.87</ele>
        <time>2022-10-05T13:49:16Z</time>
      </trkpt>
      <trkpt lat="45.34399" lon="4.73172">
        <ele>330.83</ele>
        <time>2022-10-05T13:49:33Z</time>
      </trkpt>
      <trkpt lat="45.344" lon="4.7317">
        <ele>330.83</ele>
        <time>2022-10-05T13:49:34Z</time>
      </trkpt>
      <trkpt lat="45.34415" lon="4.73144">
        <ele>332.27</ele>
        <time>2022-10-05T13:49:52Z</time>
      </trkpt>
      <trkpt lat="45.34423" lon="4.73133">
        <ele>333.23</ele>
        <time>2022-10-05T13:50:02Z</time>
      </trkpt>
      <trkpt lat="45.34424" lon="4.73129">
        <ele>333.71</ele>
        <time>2022-10-05T13:50:15Z</time>
      </trkpt>
      <trkpt lat="45.34424" lon="4.73121">
        <ele>332.75</ele>
        <time>2022-10-05T13:50:34Z</time>
      </trkpt>
      <trkpt lat="45.34425" lon="4.7312">
        <ele>332.75</ele>
        <time>2022-10-05T13:50:49Z</time>
      </trkpt>
      <trkpt lat="45.34431" lon="4.7311">
        <ele>332.75</ele>
        <time>2022-10-05T13:51:02Z</time>
      </trkpt>
      <trkpt lat="45.34432" lon="4.73109">
        <ele>333.23</ele>
        <time>2022-10-05T13:51:03Z</time>
      </trkpt>
      <trkpt lat="45.34434" lon="4.73109">
        <ele>333.23</ele>
        <time>2022-10-05T13:51:04Z</time>
      </trkpt>
      <trkpt lat="45.34451" lon="4.73093">
        <ele>334.68</ele>
        <time>2022-10-05T13:51:21Z</time>
      </trkpt>
      <trkpt lat="45.34461" lon="4.73082">
        <ele>334.68</ele>
        <time>2022-10-05T13:51:32Z</time>
      </trkpt>
      <trkpt lat="45.34462" lon="4.73081">
        <ele>334.68</ele>
        <time>2022-10-05T13:51:33Z</time>
      </trkpt>
      <trkpt lat="45.34463" lon="4.7308">
        <ele>335.16</ele>
        <time>2022-10-05T13:51:34Z</time>
      </trkpt>
      <trkpt lat="45.34482" lon="4.73057">
        <ele>334.68</ele>
        <time>2022-10-05T13:51:53Z</time>
      </trkpt>
      <trkpt lat="45.345" lon="4.73026">
        <ele>334.2</ele>
        <time>2022-10-05T13:52:14Z</time>
      </trkpt>
      <trkpt lat="45.34515" lon="4.73001">
        <ele>333.23</ele>
        <time>2022-10-05T13:52:33Z</time>
      </trkpt>
      <trkpt lat="45.34528" lon="4.72983">
        <ele>331.31</ele>
        <time>2022-10-05T13:52:49Z</time>
      </trkpt>
      <trkpt lat="45.34534" lon="4.7298">
        <ele>330.83</ele>
        <time>2022-10-05T13:52:56Z</time>
      </trkpt>
      <trkpt lat="45.34563" lon="4.72955">
        <ele>329.39</ele>
        <time>2022-10-05T13:53:13Z</time>
      </trkpt>
      <trkpt lat="45.34576" lon="4.72936">
        <ele>329.87</ele>
        <time>2022-10-05T13:53:28Z</time>
      </trkpt>
      <trkpt lat="45.34589" lon="4.72916">
        <ele>328.91</ele>
        <time>2022-10-05T13:53:47Z</time>
      </trkpt>
      <trkpt lat="45.34591" lon="4.72912">
        <ele>328.43</ele>
        <time>2022-10-05T13:53:58Z</time>
      </trkpt>
      <trkpt lat="45.34599" lon="4.72903">
        <ele>328.43</ele>
        <time>2022-10-05T13:54:15Z</time>
      </trkpt>
      <trkpt lat="45.34604" lon="4.72899">
        <ele>328.91</ele>
        <time>2022-10-05T13:54:21Z</time>
      </trkpt>
      <trkpt lat="45.34605" lon="4.72897">
        <ele>328.91</ele>
        <time>2022-10-05T13:54:22Z</time>
      </trkpt>
      <trkpt lat="45.34606" lon="4.72896">
        <ele>327.95</ele>
        <time>2022-10-05T13:54:23Z</time>
      </trkpt>
      <trkpt lat="45.34619" lon="4.72879">
        <ele>326.5</ele>
        <time>2022-10-05T13:54:39Z</time>
      </trkpt>
      <trkpt lat="45.3463" lon="4.72866">
        <ele>324.58</ele>
        <time>2022-10-05T13:54:52Z</time>
      </trkpt>
      <trkpt lat="45.34639" lon="4.72855">
        <ele>321.7</ele>
        <time>2022-10-05T13:55:05Z</time>
      </trkpt>
      <trkpt lat="45.34638" lon="4.7285">
        <ele>321.22</ele>
        <time>2022-10-05T13:55:10Z</time>
      </trkpt>
      <trkpt lat="45.34638" lon="4.72847">
        <ele>320.26</ele>
        <time>2022-10-05T13:55:11Z</time>
      </trkpt>
      <trkpt lat="45.34638" lon="4.72845">
        <ele>320.74</ele>
        <time>2022-10-05T13:55:12Z</time>
      </trkpt>
      <trkpt lat="45.34637" lon="4.72838">
        <ele>320.26</ele>
        <time>2022-10-05T13:55:22Z</time>
      </trkpt>
      <trkpt lat="45.34636" lon="4.72842">
        <ele>320.26</ele>
        <time>2022-10-05T13:55:38Z</time>
      </trkpt>
      <trkpt lat="45.34636" lon="4.72836">
        <ele>319.78</ele>
        <time>2022-10-05T13:55:53Z</time>
      </trkpt>
      <trkpt lat="45.34636" lon="4.72833">
        <ele>319.3</ele>
        <time>2022-10-05T13:55:55Z</time>
      </trkpt>
      <trkpt lat="45.34644" lon="4.72838">
        <ele>318.81</ele>
        <time>2022-10-05T13:56:07Z</time>
      </trkpt>
      <trkpt lat="45.34646" lon="4.72839">
        <ele>318.81</ele>
        <time>2022-10-05T13:56:27Z</time>
      </trkpt>
      <trkpt lat="45.34647" lon="4.7284">
        <ele>318.81</ele>
        <time>2022-10-05T13:56:28Z</time>
      </trkpt>
      <trkpt lat="45.3466" lon="4.72852">
        <ele>318.81</ele>
        <time>2022-10-05T13:56:42Z</time>
      </trkpt>
      <trkpt lat="45.34677" lon="4.72863">
        <ele>318.81</ele>
        <time>2022-10-05T13:56:58Z</time>
      </trkpt>
      <trkpt lat="45.34684" lon="4.72871">
        <ele>318.81</ele>
        <time>2022-10-05T13:57:09Z</time>
      </trkpt>
      <trkpt lat="45.34688" lon="4.72874">
        <ele>318.81</ele>
        <time>2022-10-05T13:57:14Z</time>
      </trkpt>
      <trkpt lat="45.34689" lon="4.72876">
        <ele>319.3</ele>
        <time>2022-10-05T13:57:15Z</time>
      </trkpt>
      <trkpt lat="45.34692" lon="4.7288">
        <ele>319.3</ele>
        <time>2022-10-05T13:57:19Z</time>
      </trkpt>
      <trkpt lat="45.34693" lon="4.72881">
        <ele>319.3</ele>
        <time>2022-10-05T13:57:20Z</time>
      </trkpt>
      <trkpt lat="45.34694" lon="4.72884">
        <ele>319.78</ele>
        <time>2022-10-05T13:57:25Z</time>
      </trkpt>
      <trkpt lat="45.34695" lon="4.72885">
        <ele>319.78</ele>
        <time>2022-10-05T13:57:26Z</time>
      </trkpt>
      <trkpt lat="45.34701" lon="4.72896">
        <ele>319.78</ele>
        <time>2022-10-05T13:57:37Z</time>
      </trkpt>
      <trkpt lat="45.34701" lon="4.72905">
        <ele>321.22</ele>
        <time>2022-10-05T13:57:44Z</time>
      </trkpt>
      <trkpt lat="45.347" lon="4.72916">
        <ele>321.22</ele>
        <time>2022-10-05T13:57:52Z</time>
      </trkpt>
      <trkpt lat="45.347" lon="4.72917">
        <ele>321.22</ele>
        <time>2022-10-05T13:57:53Z</time>
      </trkpt>
      <trkpt lat="45.34699" lon="4.72921">
        <ele>320.74</ele>
        <time>2022-10-05T13:57:57Z</time>
      </trkpt>
      <trkpt lat="45.34698" lon="4.72923">
        <ele>320.74</ele>
        <time>2022-10-05T13:57:58Z</time>
      </trkpt>
      <trkpt lat="45.34698" lon="4.72925">
        <ele>320.74</ele>
        <time>2022-10-05T13:57:59Z</time>
      </trkpt>
      <trkpt lat="45.34696" lon="4.72931">
        <ele>321.22</ele>
        <time>2022-10-05T13:58:04Z</time>
      </trkpt>
      <trkpt lat="45.34695" lon="4.72932">
        <ele>320.26</ele>
        <time>2022-10-05T13:58:05Z</time>
      </trkpt>
      <trkpt lat="45.34694" lon="4.72934">
        <ele>319.78</ele>
        <time>2022-10-05T13:58:06Z</time>
      </trkpt>
      <trkpt lat="45.34685" lon="4.72949">
        <ele>320.74</ele>
        <time>2022-10-05T13:58:17Z</time>
      </trkpt>
      <trkpt lat="45.34672" lon="4.72966">
        <ele>320.26</ele>
        <time>2022-10-05T13:58:33Z</time>
      </trkpt>
      <trkpt lat="45.34668" lon="4.7297">
        <ele>320.26</ele>
        <time>2022-10-05T13:58:37Z</time>
      </trkpt>
      <trkpt lat="45.34667" lon="4.72971">
        <ele>319.78</ele>
        <time>2022-10-05T13:58:38Z</time>
      </trkpt>
      <trkpt lat="45.34665" lon="4.72972">
        <ele>319.3</ele>
        <time>2022-10-05T13:58:39Z</time>
      </trkpt>
      <trkpt lat="45.34664" lon="4.72973">
        <ele>320.26</ele>
        <time>2022-10-05T13:58:40Z</time>
      </trkpt>
      <trkpt lat="45.34663" lon="4.72974">
        <ele>319.78</ele>
        <time>2022-10-05T13:58:41Z</time>
      </trkpt>
      <trkpt lat="45.34661" lon="4.72975">
        <ele>320.26</ele>
        <time>2022-10-05T13:58:42Z</time>
      </trkpt>
      <trkpt lat="45.3466" lon="4.72976">
        <ele>320.26</ele>
        <time>2022-10-05T13:58:43Z</time>
      </trkpt>
      <trkpt lat="45.34642" lon="4.72994">
        <ele>320.26</ele>
        <time>2022-10-05T13:59:01Z</time>
      </trkpt>
      <trkpt lat="45.34624" lon="4.73019">
        <ele>320.26</ele>
        <time>2022-10-05T13:59:20Z</time>
      </trkpt>
      <trkpt lat="45.34613" lon="4.73047">
        <ele>319.78</ele>
        <time>2022-10-05T13:59:39Z</time>
      </trkpt>
      <trkpt lat="45.34604" lon="4.73075">
        <ele>320.26</ele>
        <time>2022-10-05T13:59:57Z</time>
      </trkpt>
      <trkpt lat="45.34603" lon="4.73076">
        <ele>320.74</ele>
        <time>2022-10-05T13:59:58Z</time>
      </trkpt>
      <trkpt lat="45.34593" lon="4.73088">
        <ele>320.26</ele>
        <time>2022-10-05T14:00:13Z</time>
      </trkpt>
      <trkpt lat="45.34595" lon="4.73085">
        <ele>320.26</ele>
        <time>2022-10-05T14:00:21Z</time>
      </trkpt>
      <trkpt lat="45.34595" lon="4.73087">
        <ele>319.78</ele>
        <time>2022-10-05T14:00:22Z</time>
      </trkpt>
      <trkpt lat="45.34595" lon="4.7309">
        <ele>319.78</ele>
        <time>2022-10-05T14:00:23Z</time>
      </trkpt>
      <trkpt lat="45.3459" lon="4.73112">
        <ele>319.78</ele>
        <time>2022-10-05T14:00:36Z</time>
      </trkpt>
      <trkpt lat="45.34588" lon="4.73146">
        <ele>319.3</ele>
        <time>2022-10-05T14:00:55Z</time>
      </trkpt>
      <trkpt lat="45.34586" lon="4.73187">
        <ele>318.81</ele>
        <time>2022-10-05T14:01:19Z</time>
      </trkpt>
      <trkpt lat="45.34585" lon="4.73223">
        <ele>320.26</ele>
        <time>2022-10-05T14:01:39Z</time>
      </trkpt>
      <trkpt lat="45.34584" lon="4.73238">
        <ele>321.22</ele>
        <time>2022-10-05T14:01:55Z</time>
      </trkpt>
      <trkpt lat="45.34584" lon="4.7324">
        <ele>321.7</ele>
        <time>2022-10-05T14:02:19Z</time>
      </trkpt>
      <trkpt lat="45.34583" lon="4.73246">
        <ele>322.18</ele>
        <time>2022-10-05T14:02:36Z</time>
      </trkpt>
      <trkpt lat="45.34585" lon="4.73252">
        <ele>321.7</ele>
        <time>2022-10-05T14:02:49Z</time>
      </trkpt>
      <trkpt lat="45.34587" lon="4.73257">
        <ele>320.74</ele>
        <time>2022-10-05T14:02:53Z</time>
      </trkpt>
      <trkpt lat="45.34597" lon="4.73278">
        <ele>320.26</ele>
        <time>2022-10-05T14:03:05Z</time>
      </trkpt>
      <trkpt lat="45.34601" lon="4.73286">
        <ele>320.26</ele>
        <time>2022-10-05T14:03:10Z</time>
      </trkpt>
      <trkpt lat="45.34603" lon="4.73287">
        <ele>320.26</ele>
        <time>2022-10-05T14:03:11Z</time>
      </trkpt>
      <trkpt lat="45.34604" lon="4.73289">
        <ele>320.26</ele>
        <time>2022-10-05T14:03:12Z</time>
      </trkpt>
      <trkpt lat="45.34614" lon="4.73308">
        <ele>319.3</ele>
        <time>2022-10-05T14:03:25Z</time>
      </trkpt>
      <trkpt lat="45.34621" lon="4.73322">
        <ele>318.81</ele>
        <time>2022-10-05T14:03:37Z</time>
      </trkpt>
      <trkpt lat="45.34633" lon="4.73353">
        <ele>319.3</ele>
        <time>2022-10-05T14:03:53Z</time>
      </trkpt>
      <trkpt lat="45.34647" lon="4.73384">
        <ele>318.81</ele>
        <time>2022-10-05T14:04:15Z</time>
      </trkpt>
      <trkpt lat="45.34669" lon="4.73422">
        <ele>318.33</ele>
        <time>2022-10-05T14:04:39Z</time>
      </trkpt>
      <trkpt lat="45.34681" lon="4.7344">
        <ele>317.85</ele>
        <time>2022-10-05T14:04:54Z</time>
      </trkpt>
      <trkpt lat="45.34699" lon="4.73474">
        <ele>317.85</ele>
        <time>2022-10-05T14:05:14Z</time>
      </trkpt>
      <trkpt lat="45.34708" lon="4.73497">
        <ele>317.85</ele>
        <time>2022-10-05T14:05:28Z</time>
      </trkpt>
      <trkpt lat="45.3472" lon="4.73526">
        <ele>318.33</ele>
        <time>2022-10-05T14:05:46Z</time>
      </trkpt>
      <trkpt lat="45.3472" lon="4.73532">
        <ele>319.3</ele>
        <time>2022-10-05T14:05:51Z</time>
      </trkpt>
      <trkpt lat="45.34719" lon="4.73534">
        <ele>319.78</ele>
        <time>2022-10-05T14:05:52Z</time>
      </trkpt>
      <trkpt lat="45.34718" lon="4.73535">
        <ele>319.3</ele>
        <time>2022-10-05T14:05:53Z</time>
      </trkpt>
      <trkpt lat="45.34721" lon="4.73538">
        <ele>317.85</ele>
        <time>2022-10-05T14:06:01Z</time>
      </trkpt>
      <trkpt lat="45.34722" lon="4.73537">
        <ele>317.85</ele>
        <time>2022-10-05T14:06:02Z</time>
      </trkpt>
      <trkpt lat="45.34738" lon="4.73527">
        <ele>317.37</ele>
        <time>2022-10-05T14:06:16Z</time>
      </trkpt>
      <trkpt lat="45.34759" lon="4.73525">
        <ele>315.93</ele>
        <time>2022-10-05T14:06:32Z</time>
      </trkpt>
      <trkpt lat="45.34782" lon="4.73535">
        <ele>315.93</ele>
        <time>2022-10-05T14:06:50Z</time>
      </trkpt>
      <trkpt lat="45.34784" lon="4.73528">
        <ele>314.49</ele>
        <time>2022-10-05T14:08:48Z</time>
      </trkpt>
      <trkpt lat="45.34792" lon="4.73523">
        <ele>314.49</ele>
        <time>2022-10-05T14:08:53Z</time>
      </trkpt>
      <trkpt lat="45.34812" lon="4.73519">
        <ele>314.49</ele>
        <time>2022-10-05T14:09:09Z</time>
      </trkpt>
      <trkpt lat="45.34827" lon="4.73508">
        <ele>313.05</ele>
        <time>2022-10-05T14:09:23Z</time>
      </trkpt>
      <trkpt lat="45.34828" lon="4.73503">
        <ele>313.05</ele>
        <time>2022-10-05T14:09:28Z</time>
      </trkpt>
      <trkpt lat="45.34829" lon="4.73471">
        <ele>311.12</ele>
        <time>2022-10-05T14:09:43Z</time>
      </trkpt>
      <trkpt lat="45.3483" lon="4.73441">
        <ele>310.64</ele>
        <time>2022-10-05T14:10:00Z</time>
      </trkpt>
      <trkpt lat="45.34836" lon="4.7343">
        <ele>309.68</ele>
        <time>2022-10-05T14:10:09Z</time>
      </trkpt>
      <trkpt lat="45.34853" lon="4.73421">
        <ele>305.84</ele>
        <time>2022-10-05T14:10:24Z</time>
      </trkpt>
      <trkpt lat="45.34871" lon="4.73409">
        <ele>303.43</ele>
        <time>2022-10-05T14:10:41Z</time>
      </trkpt>
      <trkpt lat="45.34872" lon="4.73408">
        <ele>303.91</ele>
        <time>2022-10-05T14:10:42Z</time>
      </trkpt>
      <trkpt lat="45.34891" lon="4.73393">
        <ele>301.03</ele>
        <time>2022-10-05T14:11:00Z</time>
      </trkpt>
      <trkpt lat="45.34908" lon="4.73381">
        <ele>299.59</ele>
        <time>2022-10-05T14:11:16Z</time>
      </trkpt>
      <trkpt lat="45.34916" lon="4.73356">
        <ele>296.22</ele>
        <time>2022-10-05T14:11:35Z</time>
      </trkpt>
      <trkpt lat="45.34913" lon="4.7334">
        <ele>293.34</ele>
        <time>2022-10-05T14:11:48Z</time>
      </trkpt>
      <trkpt lat="45.3491" lon="4.73328">
        <ele>292.38</ele>
        <time>2022-10-05T14:11:57Z</time>
      </trkpt>
      <trkpt lat="45.34911" lon="4.73313">
        <ele>289.97</ele>
        <time>2022-10-05T14:12:11Z</time>
      </trkpt>
      <trkpt lat="45.34912" lon="4.73315">
        <ele>289.01</ele>
        <time>2022-10-05T14:12:13Z</time>
      </trkpt>
      <trkpt lat="45.34925" lon="4.73325">
        <ele>287.09</ele>
        <time>2022-10-05T14:12:32Z</time>
      </trkpt>
      <trkpt lat="45.34933" lon="4.73333">
        <ele>283.73</ele>
        <time>2022-10-05T14:12:43Z</time>
      </trkpt>
      <trkpt lat="45.34951" lon="4.7335">
        <ele>281.32</ele>
        <time>2022-10-05T14:13:02Z</time>
      </trkpt>
      <trkpt lat="45.34953" lon="4.73357">
        <ele>280.84</ele>
        <time>2022-10-05T14:13:22Z</time>
      </trkpt>
      <trkpt lat="45.34958" lon="4.73365">
        <ele>280.84</ele>
        <time>2022-10-05T14:13:50Z</time>
      </trkpt>
      <trkpt lat="45.34949" lon="4.73354">
        <ele>280.36</ele>
        <time>2022-10-05T14:14:20Z</time>
      </trkpt>
      <trkpt lat="45.34951" lon="4.73359">
        <ele>280.36</ele>
        <time>2022-10-05T14:14:42Z</time>
      </trkpt>
      <trkpt lat="45.34951" lon="4.7335">
        <ele>281.32</ele>
        <time>2022-10-05T14:15:02Z</time>
      </trkpt>
      <trkpt lat="45.34958" lon="4.73356">
        <ele>278.92</ele>
        <time>2022-10-05T14:15:34Z</time>
      </trkpt>
      <trkpt lat="45.34969" lon="4.73373">
        <ele>275.56</ele>
        <time>2022-10-05T14:15:50Z</time>
      </trkpt>
      <trkpt lat="45.34968" lon="4.73398">
        <ele>274.59</ele>
        <time>2022-10-05T14:16:04Z</time>
      </trkpt>
      <trkpt lat="45.3495" lon="4.73423">
        <ele>273.63</ele>
        <time>2022-10-05T14:16:22Z</time>
      </trkpt>
      <trkpt lat="45.34944" lon="4.73435">
        <ele>271.71</ele>
        <time>2022-10-05T14:16:31Z</time>
      </trkpt>
      <trkpt lat="45.34955" lon="4.73451">
        <ele>269.79</ele>
        <time>2022-10-05T14:16:46Z</time>
      </trkpt>
      <trkpt lat="45.34956" lon="4.73452">
        <ele>269.79</ele>
        <time>2022-10-05T14:16:47Z</time>
      </trkpt>
      <trkpt lat="45.34966" lon="4.73467">
        <ele>266.42</ele>
        <time>2022-10-05T14:17:03Z</time>
      </trkpt>
      <trkpt lat="45.34971" lon="4.73484">
        <ele>264.02</ele>
        <time>2022-10-05T14:17:18Z</time>
      </trkpt>
      <trkpt lat="45.34986" lon="4.73515">
        <ele>262.58</ele>
        <time>2022-10-05T14:17:39Z</time>
      </trkpt>
      <trkpt lat="45.34995" lon="4.73514">
        <ele>259.21</ele>
        <time>2022-10-05T14:17:51Z</time>
      </trkpt>
      <trkpt lat="45.35007" lon="4.73506">
        <ele>255.85</ele>
        <time>2022-10-05T14:18:04Z</time>
      </trkpt>
      <trkpt lat="45.35009" lon="4.73504">
        <ele>255.85</ele>
        <time>2022-10-05T14:18:06Z</time>
      </trkpt>
      <trkpt lat="45.35022" lon="4.73497">
        <ele>254.41</ele>
        <time>2022-10-05T14:18:19Z</time>
      </trkpt>
      <trkpt lat="45.35036" lon="4.73489">
        <ele>252.96</ele>
        <time>2022-10-05T14:18:33Z</time>
      </trkpt>
      <trkpt lat="45.35054" lon="4.73508">
        <ele>251.52</ele>
        <time>2022-10-05T14:18:50Z</time>
      </trkpt>
      <trkpt lat="45.35067" lon="4.73529">
        <ele>248.16</ele>
        <time>2022-10-05T14:19:05Z</time>
      </trkpt>
      <trkpt lat="45.35077" lon="4.73547">
        <ele>245.27</ele>
        <time>2022-10-05T14:19:21Z</time>
      </trkpt>
      <trkpt lat="45.35086" lon="4.73557">
        <ele>242.39</ele>
        <time>2022-10-05T14:19:32Z</time>
      </trkpt>
      <trkpt lat="45.35097" lon="4.73556">
        <ele>239.99</ele>
        <time>2022-10-05T14:19:48Z</time>
      </trkpt>
      <trkpt lat="45.3511" lon="4.73566">
        <ele>238.54</ele>
        <time>2022-10-05T14:20:03Z</time>
      </trkpt>
      <trkpt lat="45.35129" lon="4.73579">
        <ele>235.66</ele>
        <time>2022-10-05T14:20:20Z</time>
      </trkpt>
      <trkpt lat="45.35145" lon="4.73595">
        <ele>232.78</ele>
        <time>2022-10-05T14:20:36Z</time>
      </trkpt>
      <trkpt lat="45.35159" lon="4.73611">
        <ele>229.41</ele>
        <time>2022-10-05T14:20:53Z</time>
      </trkpt>
      <trkpt lat="45.35169" lon="4.73633">
        <ele>227.49</ele>
        <time>2022-10-05T14:21:08Z</time>
      </trkpt>
      <trkpt lat="45.3518" lon="4.7365">
        <ele>226.05</ele>
        <time>2022-10-05T14:21:21Z</time>
      </trkpt>
      <trkpt lat="45.35195" lon="4.73649">
        <ele>222.2</ele>
        <time>2022-10-05T14:21:35Z</time>
      </trkpt>
      <trkpt lat="45.35197" lon="4.73649">
        <ele>221.24</ele>
        <time>2022-10-05T14:21:37Z</time>
      </trkpt>
      <trkpt lat="45.35213" lon="4.73662">
        <ele>219.32</ele>
        <time>2022-10-05T14:21:54Z</time>
      </trkpt>
      <trkpt lat="45.35235" lon="4.73678">
        <ele>216.43</ele>
        <time>2022-10-05T14:22:12Z</time>
      </trkpt>
      <trkpt lat="45.3525" lon="4.73691">
        <ele>214.03</ele>
        <time>2022-10-05T14:22:29Z</time>
      </trkpt>
      <trkpt lat="45.3526" lon="4.73704">
        <ele>211.15</ele>
        <time>2022-10-05T14:22:41Z</time>
      </trkpt>
      <trkpt lat="45.35267" lon="4.73719">
        <ele>207.78</ele>
        <time>2022-10-05T14:22:51Z</time>
      </trkpt>
      <trkpt lat="45.35271" lon="4.73729">
        <ele>205.86</ele>
        <time>2022-10-05T14:22:58Z</time>
      </trkpt>
      <trkpt lat="45.35277" lon="4.73745">
        <ele>202.98</ele>
        <time>2022-10-05T14:23:09Z</time>
      </trkpt>
      <trkpt lat="45.35286" lon="4.73767">
        <ele>199.13</ele>
        <time>2022-10-05T14:23:23Z</time>
      </trkpt>
      <trkpt lat="45.35292" lon="4.73778">
        <ele>195.77</ele>
        <time>2022-10-05T14:23:37Z</time>
      </trkpt>
      <trkpt lat="45.35297" lon="4.73785">
        <ele>192.88</ele>
        <time>2022-10-05T14:23:48Z</time>
      </trkpt>
      <trkpt lat="45.3531" lon="4.73794">
        <ele>189.52</ele>
        <time>2022-10-05T14:24:01Z</time>
      </trkpt>
      <trkpt lat="45.35323" lon="4.73811">
        <ele>186.15</ele>
        <time>2022-10-05T14:24:16Z</time>
      </trkpt>
      <trkpt lat="45.35322" lon="4.73819">
        <ele>185.67</ele>
        <time>2022-10-05T14:24:33Z</time>
      </trkpt>
      <trkpt lat="45.35332" lon="4.73823">
        <ele>184.71</ele>
        <time>2022-10-05T14:25:00Z</time>
      </trkpt>
      <trkpt lat="45.35339" lon="4.73841">
        <ele>183.75</ele>
        <time>2022-10-05T14:25:17Z</time>
      </trkpt>
      <trkpt lat="45.35343" lon="4.73855">
        <ele>182.79</ele>
        <time>2022-10-05T14:25:27Z</time>
      </trkpt>
      <trkpt lat="45.35351" lon="4.73879">
        <ele>181.83</ele>
        <time>2022-10-05T14:25:44Z</time>
      </trkpt>
      <trkpt lat="45.35361" lon="4.739">
        <ele>180.38</ele>
        <time>2022-10-05T14:25:59Z</time>
      </trkpt>
      <trkpt lat="45.35371" lon="4.73922">
        <ele>179.9</ele>
        <time>2022-10-05T14:26:14Z</time>
      </trkpt>
      <trkpt lat="45.35379" lon="4.73945">
        <ele>178.46</ele>
        <time>2022-10-05T14:26:29Z</time>
      </trkpt>
      <trkpt lat="45.35392" lon="4.73973">
        <ele>179.42</ele>
        <time>2022-10-05T14:26:47Z</time>
      </trkpt>
      <trkpt lat="45.35402" lon="4.74003">
        <ele>178.46</ele>
        <time>2022-10-05T14:27:05Z</time>
      </trkpt>
      <trkpt lat="45.35409" lon="4.74029">
        <ele>177.98</ele>
        <time>2022-10-05T14:27:19Z</time>
      </trkpt>
      <trkpt lat="45.35412" lon="4.74053">
        <ele>177.5</ele>
        <time>2022-10-05T14:27:38Z</time>
      </trkpt>
      <trkpt lat="45.35413" lon="4.74063">
        <ele>176.06</ele>
        <time>2022-10-05T14:27:55Z</time>
      </trkpt>
      <trkpt lat="45.35413" lon="4.74089">
        <ele>175.58</ele>
        <time>2022-10-05T14:28:10Z</time>
      </trkpt>
      <trkpt lat="45.35403" lon="4.74104">
        <ele>175.58</ele>
        <time>2022-10-05T14:28:25Z</time>
      </trkpt>
      <trkpt lat="45.35388" lon="4.74127">
        <ele>174.62</ele>
        <time>2022-10-05T14:28:42Z</time>
      </trkpt>
      <trkpt lat="45.35378" lon="4.74146">
        <ele>175.58</ele>
        <time>2022-10-05T14:28:56Z</time>
      </trkpt>
      <trkpt lat="45.35362" lon="4.74173">
        <ele>175.1</ele>
        <time>2022-10-05T14:29:13Z</time>
      </trkpt>
      <trkpt lat="45.35356" lon="4.74186">
        <ele>175.1</ele>
        <time>2022-10-05T14:29:22Z</time>
      </trkpt>
      <trkpt lat="45.35344" lon="4.7421">
        <ele>176.06</ele>
        <time>2022-10-05T14:29:41Z</time>
      </trkpt>
      <trkpt lat="45.35343" lon="4.74221">
        <ele>175.58</ele>
        <time>2022-10-05T14:29:47Z</time>
      </trkpt>
      <trkpt lat="45.35337" lon="4.74238">
        <ele>174.62</ele>
        <time>2022-10-05T14:29:56Z</time>
      </trkpt>
      <trkpt lat="45.35336" lon="4.74244">
        <ele>174.62</ele>
        <time>2022-10-05T14:29:59Z</time>
      </trkpt>
      <trkpt lat="45.35334" lon="4.74253">
        <ele>174.62</ele>
        <time>2022-10-05T14:30:05Z</time>
      </trkpt>
      <trkpt lat="45.35337" lon="4.74273">
        <ele>173.17</ele>
        <time>2022-10-05T14:30:15Z</time>
      </trkpt>
      <trkpt lat="45.35332" lon="4.74301">
        <ele>171.73</ele>
        <time>2022-10-05T14:30:31Z</time>
      </trkpt>
      <trkpt lat="45.35334" lon="4.74311">
        <ele>171.25</ele>
        <time>2022-10-05T14:30:37Z</time>
      </trkpt>
      <trkpt lat="45.35333" lon="4.74317">
        <ele>170.77</ele>
        <time>2022-10-05T14:30:40Z</time>
      </trkpt>
      <trkpt lat="45.35319" lon="4.74342">
        <ele>169.33</ele>
        <time>2022-10-05T14:30:55Z</time>
      </trkpt>
      <trkpt lat="45.35318" lon="4.74347">
        <ele>169.33</ele>
        <time>2022-10-05T14:30:58Z</time>
      </trkpt>
      <trkpt lat="45.35309" lon="4.74378">
        <ele>166.93</ele>
        <time>2022-10-05T14:31:15Z</time>
      </trkpt>
      <trkpt lat="45.353" lon="4.744">
        <ele>165.48</ele>
        <time>2022-10-05T14:31:31Z</time>
      </trkpt>
      <trkpt lat="45.35299" lon="4.74404">
        <ele>165</ele>
        <time>2022-10-05T14:31:33Z</time>
      </trkpt>
      <trkpt lat="45.35298" lon="4.74424">
        <ele>162.12</ele>
        <time>2022-10-05T14:31:50Z</time>
      </trkpt>
      <trkpt lat="45.35299" lon="4.74433">
        <ele>161.64</ele>
        <time>2022-10-05T14:32:04Z</time>
      </trkpt>
      <trkpt lat="45.35299" lon="4.7444">
        <ele>161.64</ele>
        <time>2022-10-05T14:32:10Z</time>
      </trkpt>
      <trkpt lat="45.35292" lon="4.74475">
        <ele>160.2</ele>
        <time>2022-10-05T14:32:29Z</time>
      </trkpt>
      <trkpt lat="45.35285" lon="4.74495">
        <ele>159.72</ele>
        <time>2022-10-05T14:32:42Z</time>
      </trkpt>
      <trkpt lat="45.35284" lon="4.74503">
        <ele>159.72</ele>
        <time>2022-10-05T14:32:46Z</time>
      </trkpt>
      <trkpt lat="45.35277" lon="4.74533">
        <ele>159.72</ele>
        <time>2022-10-05T14:33:02Z</time>
      </trkpt>
      <trkpt lat="45.35269" lon="4.74557">
        <ele>158.75</ele>
        <time>2022-10-05T14:33:19Z</time>
      </trkpt>
      <trkpt lat="45.35262" lon="4.74587">
        <ele>158.27</ele>
        <time>2022-10-05T14:33:36Z</time>
      </trkpt>
      <trkpt lat="45.35255" lon="4.74607">
        <ele>157.79</ele>
        <time>2022-10-05T14:33:55Z</time>
      </trkpt>
      <trkpt lat="45.35249" lon="4.74626">
        <ele>157.79</ele>
        <time>2022-10-05T14:34:10Z</time>
      </trkpt>
      <trkpt lat="45.35233" lon="4.74644">
        <ele>157.79</ele>
        <time>2022-10-05T14:34:27Z</time>
      </trkpt>
      <trkpt lat="45.35226" lon="4.7466">
        <ele>157.31</ele>
        <time>2022-10-05T14:34:40Z</time>
      </trkpt>
      <trkpt lat="45.3522" lon="4.74678">
        <ele>158.27</ele>
        <time>2022-10-05T14:34:53Z</time>
      </trkpt>
      <trkpt lat="45.35209" lon="4.74706">
        <ele>158.75</ele>
        <time>2022-10-05T14:35:10Z</time>
      </trkpt>
      <trkpt lat="45.35208" lon="4.74714">
        <ele>158.75</ele>
        <time>2022-10-05T14:35:14Z</time>
      </trkpt>
      <trkpt lat="45.35211" lon="4.74728">
        <ele>158.75</ele>
        <time>2022-10-05T14:35:23Z</time>
      </trkpt>
      <trkpt lat="45.35222" lon="4.74748">
        <ele>159.72</ele>
        <time>2022-10-05T14:35:40Z</time>
      </trkpt>
      <trkpt lat="45.35226" lon="4.74771">
        <ele>161.16</ele>
        <time>2022-10-05T14:35:54Z</time>
      </trkpt>
      <trkpt lat="45.3523" lon="4.74797">
        <ele>161.16</ele>
        <time>2022-10-05T14:36:10Z</time>
      </trkpt>
      <trkpt lat="45.35228" lon="4.74806">
        <ele>160.68</ele>
        <time>2022-10-05T14:36:16Z</time>
      </trkpt>
      <trkpt lat="45.35212" lon="4.74828">
        <ele>161.16</ele>
        <time>2022-10-05T14:36:32Z</time>
      </trkpt>
      <trkpt lat="45.352" lon="4.74858">
        <ele>159.24</ele>
        <time>2022-10-05T14:36:54Z</time>
      </trkpt>
      <trkpt lat="45.35201" lon="4.74881">
        <ele>158.75</ele>
        <time>2022-10-05T14:37:09Z</time>
      </trkpt>
      <trkpt lat="45.35194" lon="4.74893">
        <ele>159.24</ele>
        <time>2022-10-05T14:37:28Z</time>
      </trkpt>
      <trkpt lat="45.35192" lon="4.74898">
        <ele>159.72</ele>
        <time>2022-10-05T14:37:30Z</time>
      </trkpt>
      <trkpt lat="45.35177" lon="4.74934">
        <ele>159.72</ele>
        <time>2022-10-05T14:37:53Z</time>
      </trkpt>
      <trkpt lat="45.35169" lon="4.74966">
        <ele>158.27</ele>
        <time>2022-10-05T14:38:12Z</time>
      </trkpt>
      <trkpt lat="45.35153" lon="4.75006">
        <ele>157.79</ele>
        <time>2022-10-05T14:38:33Z</time>
      </trkpt>
      <trkpt lat="45.35129" lon="4.75024">
        <ele>159.72</ele>
        <time>2022-10-05T14:38:54Z</time>
      </trkpt>
      <trkpt lat="45.3512" lon="4.7504">
        <ele>159.24</ele>
        <time>2022-10-05T14:39:04Z</time>
      </trkpt>
      <trkpt lat="45.35122" lon="4.75048">
        <ele>159.24</ele>
        <time>2022-10-05T14:39:08Z</time>
      </trkpt>
      <trkpt lat="45.35116" lon="4.75079">
        <ele>159.72</ele>
        <time>2022-10-05T14:39:25Z</time>
      </trkpt>
      <trkpt lat="45.3511" lon="4.7511">
        <ele>161.16</ele>
        <time>2022-10-05T14:39:43Z</time>
      </trkpt>
      <trkpt lat="45.35101" lon="4.75151">
        <ele>163.08</ele>
        <time>2022-10-05T14:40:04Z</time>
      </trkpt>
      <trkpt lat="45.351" lon="4.75182">
        <ele>161.64</ele>
        <time>2022-10-05T14:40:22Z</time>
      </trkpt>
      <trkpt lat="45.35101" lon="4.75212">
        <ele>160.68</ele>
        <time>2022-10-05T14:40:40Z</time>
      </trkpt>
      <trkpt lat="45.35108" lon="4.75232">
        <ele>160.2</ele>
        <time>2022-10-05T14:40:51Z</time>
      </trkpt>
      <trkpt lat="45.35124" lon="4.75264">
        <ele>159.24</ele>
        <time>2022-10-05T14:41:10Z</time>
      </trkpt>
      <trkpt lat="45.35127" lon="4.75269">
        <ele>159.72</ele>
        <time>2022-10-05T14:41:13Z</time>
      </trkpt>
      <trkpt lat="45.35132" lon="4.75279">
        <ele>158.75</ele>
        <time>2022-10-05T14:41:20Z</time>
      </trkpt>
      <trkpt lat="45.35137" lon="4.75288">
        <ele>158.27</ele>
        <time>2022-10-05T14:41:26Z</time>
      </trkpt>
      <trkpt lat="45.35142" lon="4.75301">
        <ele>157.31</ele>
        <time>2022-10-05T14:41:35Z</time>
      </trkpt>
      <trkpt lat="45.35151" lon="4.75331">
        <ele>156.35</ele>
        <time>2022-10-05T14:41:52Z</time>
      </trkpt>
      <trkpt lat="45.35151" lon="4.75332">
        <ele>155.87</ele>
        <time>2022-10-05T14:41:53Z</time>
      </trkpt>
      <trkpt lat="45.35154" lon="4.75348">
        <ele>154.91</ele>
        <time>2022-10-05T14:42:02Z</time>
      </trkpt>
      <trkpt lat="45.35161" lon="4.75373">
        <ele>153.47</ele>
        <time>2022-10-05T14:42:17Z</time>
      </trkpt>
      <trkpt lat="45.35173" lon="4.75408">
        <ele>152.99</ele>
        <time>2022-10-05T14:42:38Z</time>
      </trkpt>
      <trkpt lat="45.35183" lon="4.75436">
        <ele>152.51</ele>
        <time>2022-10-05T14:42:54Z</time>
      </trkpt>
      <trkpt lat="45.35193" lon="4.75477">
        <ele>153.47</ele>
        <time>2022-10-05T14:43:15Z</time>
      </trkpt>
      <trkpt lat="45.35191" lon="4.75515">
        <ele>153.47</ele>
        <time>2022-10-05T14:43:35Z</time>
      </trkpt>
      <trkpt lat="45.352" lon="4.75561">
        <ele>152.51</ele>
        <time>2022-10-05T14:43:59Z</time>
      </trkpt>
      <trkpt lat="45.35213" lon="4.75595">
        <ele>151.06</ele>
        <time>2022-10-05T14:44:20Z</time>
      </trkpt>
      <trkpt lat="45.35214" lon="4.75607">
        <ele>151.06</ele>
        <time>2022-10-05T14:44:26Z</time>
      </trkpt>
      <trkpt lat="45.35216" lon="4.75642">
        <ele>149.62</ele>
        <time>2022-10-05T14:44:45Z</time>
      </trkpt>
      <trkpt lat="45.35227" lon="4.7567">
        <ele>146.26</ele>
        <time>2022-10-05T14:45:04Z</time>
      </trkpt>
      <trkpt lat="45.35229" lon="4.75673">
        <ele>145.78</ele>
        <time>2022-10-05T14:45:06Z</time>
      </trkpt>
      <trkpt lat="45.3523" lon="4.75677">
        <ele>144.82</ele>
        <time>2022-10-05T14:45:08Z</time>
      </trkpt>
      <trkpt lat="45.35235" lon="4.75713">
        <ele>142.89</ele>
        <time>2022-10-05T14:45:27Z</time>
      </trkpt>
      <trkpt lat="45.35233" lon="4.75723">
        <ele>142.41</ele>
        <time>2022-10-05T14:45:35Z</time>
      </trkpt>
      <trkpt lat="45.35224" lon="4.75724">
        <ele>141.93</ele>
        <time>2022-10-05T14:45:42Z</time>
      </trkpt>
      <trkpt lat="45.3522" lon="4.75751">
        <ele>142.89</ele>
        <time>2022-10-05T14:45:58Z</time>
      </trkpt>
      <trkpt lat="45.35211" lon="4.75763">
        <ele>141.93</ele>
        <time>2022-10-05T14:46:10Z</time>
      </trkpt>
      <trkpt lat="45.35213" lon="4.75765">
        <ele>141.93</ele>
        <time>2022-10-05T14:46:14Z</time>
      </trkpt>
      <trkpt lat="45.35213" lon="4.75771">
        <ele>141.93</ele>
        <time>2022-10-05T14:46:18Z</time>
      </trkpt>
      <trkpt lat="45.35206" lon="4.75812">
        <ele>140.97</ele>
        <time>2022-10-05T14:46:40Z</time>
      </trkpt>
      <trkpt lat="45.35204" lon="4.75817">
        <ele>140.49</ele>
        <time>2022-10-05T14:46:43Z</time>
      </trkpt>
      <trkpt lat="45.35204" lon="4.75828">
        <ele>140.97</ele>
        <time>2022-10-05T14:46:52Z</time>
      </trkpt>
      <trkpt lat="45.3517" lon="4.75831">
        <ele>141.45</ele>
        <time>2022-10-05T14:47:11Z</time>
      </trkpt>
      <trkpt lat="45.35167" lon="4.75832">
        <ele>140.01</ele>
        <time>2022-10-05T14:47:19Z</time>
      </trkpt>
      <trkpt lat="45.35162" lon="4.75848">
        <ele>139.53</ele>
        <time>2022-10-05T14:47:37Z</time>
      </trkpt>
      <trkpt lat="45.35161" lon="4.75859">
        <ele>139.05</ele>
        <time>2022-10-05T14:47:52Z</time>
      </trkpt>
      <trkpt lat="45.3516" lon="4.75866">
        <ele>138.57</ele>
        <time>2022-10-05T14:48:06Z</time>
      </trkpt>
      <trkpt lat="45.35155" lon="4.75891">
        <ele>138.09</ele>
        <time>2022-10-05T14:48:23Z</time>
      </trkpt>
      <trkpt lat="45.35159" lon="4.75898">
        <ele>137.61</ele>
        <time>2022-10-05T14:48:35Z</time>
      </trkpt>
      <trkpt lat="45.35156" lon="4.75896">
        <ele>137.13</ele>
        <time>2022-10-05T14:48:55Z</time>
      </trkpt>
      <trkpt lat="45.35158" lon="4.759">
        <ele>137.61</ele>
        <time>2022-10-05T14:49:17Z</time>
      </trkpt>
      <trkpt lat="45.35161" lon="4.759">
        <ele>138.09</ele>
        <time>2022-10-05T14:49:38Z</time>
        <extensions>
          <visugpx:TrkExtension xmlns:visugpx="https://www.visugpx.com/editgpx/">
            <visugpx:node>1</visugpx:node>
            </visugpx:TrkExtension>
        </extensions>
      </trkpt>
    </trkseg>
  </trk>
</gpx>